createdAt,value
2023-05-15T00:00:15.080Z,24.18
2023-05-15T00:01:15.100Z,24.18
2023-05-15T00:02:15.159Z,24.18
2023-05-15T00:03:15.287Z,24.18
2023-05-15T00:04:15.269Z,24.18
2023-05-15T00:05:15.276Z,24.17
2023-05-15T00:06:15.300Z,24.18
2023-05-15T00:07:15.356Z,24.18
2023-05-15T00:08:15.394Z,24.18
2023-05-15T00:09:15.441Z,24.18
2023-05-15T00:10:15.485Z,24.17
2023-05-15T00:11:15.502Z,24.17
2023-05-15T00:12:15.570Z,24.17
2023-05-15T00:13:15.583Z,24.16
2023-05-15T00:14:15.648Z,24.17
2023-05-15T00:15:15.674Z,24.17
2023-05-15T00:16:15.801Z,24.17
2023-05-15T00:17:15.777Z,24.17
2023-05-15T00:18:15.791Z,24.17
2023-05-15T00:19:15.910Z,24.17
2023-05-15T00:20:15.900Z,24.17
2023-05-15T00:21:15.940Z,24.16
2023-05-15T00:22:15.967Z,24.16
2023-05-15T00:23:16.011Z,24.16
2023-05-15T00:24:16.053Z,24.16
2023-05-15T00:25:16.114Z,24.15
2023-05-15T00:26:16.185Z,24.16
2023-05-15T00:27:16.202Z,24.16
2023-05-15T00:28:16.239Z,24.16
2023-05-15T00:29:16.271Z,24.15
2023-05-15T00:30:16.342Z,24.15
2023-05-15T00:31:16.407Z,24.15
2023-05-15T00:32:16.422Z,24.16
2023-05-15T00:33:16.464Z,24.15
2023-05-15T00:34:16.518Z,24.15
2023-05-15T00:35:16.549Z,24.15
2023-05-15T00:36:16.597Z,24.15
2023-05-15T00:37:16.644Z,24.15
2023-05-15T00:38:16.702Z,24.14
2023-05-15T00:39:16.725Z,24.14
2023-05-15T00:40:16.788Z,24.15
2023-05-15T00:41:16.823Z,24.14
2023-05-15T00:42:16.881Z,24.13
2023-05-15T00:43:16.921Z,24.14
2023-05-15T00:44:16.959Z,24.14
2023-05-15T00:45:17.013Z,24.14
2023-05-15T00:46:17.063Z,24.13
2023-05-15T00:47:17.134Z,24.13
2023-05-15T00:48:17.158Z,24.13
2023-05-15T00:49:17.184Z,24.13
2023-05-15T00:50:17.237Z,24.13
2023-05-15T00:51:17.304Z,24.13
2023-05-15T00:52:17.348Z,24.12
2023-05-15T00:53:17.378Z,24.12
2023-05-15T00:54:17.473Z,24.13
2023-05-15T00:55:17.492Z,24.13
2023-05-15T00:56:17.547Z,24.13
2023-05-15T00:57:17.581Z,24.12
2023-05-15T00:58:17.628Z,24.12
2023-05-15T00:59:17.676Z,24.12
2023-05-15T01:00:17.742Z,24.12
2023-05-15T01:01:17.843Z,24.12
2023-05-15T01:02:17.884Z,24.12
2023-05-15T01:03:17.913Z,24.12
2023-05-15T01:04:17.913Z,24.12
2023-05-15T01:05:17.974Z,24.12
2023-05-15T01:06:18.011Z,24.12
2023-05-15T01:07:18.081Z,24.11
2023-05-15T01:08:18.114Z,24.11
2023-05-15T01:09:18.171Z,24.12
2023-05-15T01:10:18.237Z,24.12
2023-05-15T01:11:18.297Z,24.11
2023-05-15T01:12:18.337Z,24.11
2023-05-15T01:13:18.393Z,24.11
2023-05-15T01:14:18.451Z,24.11
2023-05-15T01:15:18.494Z,24.11
2023-05-15T01:16:18.578Z,24.11
2023-05-15T01:17:18.589Z,24.11
2023-05-15T01:19:18.793Z,24.10
2023-05-15T01:20:18.756Z,24.10
2023-05-15T01:21:18.805Z,24.10
2023-05-15T01:22:18.852Z,24.10
2023-05-15T01:23:18.903Z,24.11
2023-05-15T01:24:18.966Z,24.10
2023-05-15T01:25:19.011Z,24.11
2023-05-15T01:26:19.089Z,24.10
2023-05-15T01:27:19.136Z,24.10
2023-05-15T01:28:19.171Z,24.10
2023-05-15T01:29:19.236Z,24.11
2023-05-15T01:30:19.288Z,24.10
2023-05-15T01:31:19.363Z,24.10
2023-05-15T01:32:19.527Z,24.10
2023-05-15T01:33:19.455Z,24.10
2023-05-15T01:34:19.500Z,24.10
2023-05-15T01:35:19.541Z,24.09
2023-05-15T01:36:19.587Z,24.10
2023-05-15T01:37:19.650Z,24.09
2023-05-15T01:38:19.711Z,24.09
2023-05-15T01:39:19.755Z,24.09
2023-05-15T01:40:19.802Z,24.09
2023-05-15T01:41:19.845Z,24.09
2023-05-15T01:42:19.911Z,24.09
2023-05-15T01:43:19.959Z,24.09
2023-05-15T01:44:20.059Z,24.09
2023-05-15T01:45:20.061Z,24.09
2023-05-15T01:46:20.122Z,24.09
2023-05-15T01:47:20.166Z,24.08
2023-05-15T01:48:20.237Z,24.08
2023-05-15T01:49:20.270Z,24.08
2023-05-15T01:50:20.331Z,24.08
2023-05-15T01:51:20.401Z,24.09
2023-05-15T01:52:20.437Z,24.08
2023-05-15T01:53:20.518Z,24.08
2023-05-15T01:54:20.567Z,24.08
2023-05-15T01:55:20.628Z,24.08
2023-05-15T01:56:20.666Z,24.07
2023-05-15T01:57:20.721Z,24.07
2023-05-15T01:58:20.783Z,24.07
2023-05-15T01:59:20.845Z,24.07
2023-05-15T02:00:20.884Z,24.07
2023-05-15T02:01:20.975Z,24.07
2023-05-15T02:02:21.120Z,24.07
2023-05-15T02:03:21.133Z,24.07
2023-05-15T02:04:21.109Z,24.07
2023-05-15T02:05:21.154Z,24.07
2023-05-15T02:06:21.209Z,24.07
2023-05-15T02:07:21.248Z,24.07
2023-05-15T02:08:21.336Z,24.07
2023-05-15T02:09:21.371Z,24.07
2023-05-15T02:10:21.428Z,24.07
2023-05-15T02:11:21.505Z,24.07
2023-05-15T02:12:21.549Z,24.07
2023-05-15T02:13:21.596Z,24.07
2023-05-15T02:14:21.673Z,24.06
2023-05-15T02:15:21.703Z,24.06
2023-05-15T02:16:21.772Z,24.06
2023-05-15T02:17:21.836Z,24.07
2023-05-15T02:18:21.867Z,24.06
2023-05-15T02:19:21.922Z,24.07
2023-05-15T02:20:22.000Z,24.06
2023-05-15T02:21:22.052Z,24.06
2023-05-15T02:22:22.090Z,24.06
2023-05-15T02:23:22.147Z,24.05
2023-05-15T02:24:22.228Z,24.06
2023-05-15T02:25:22.274Z,24.06
2023-05-15T02:26:22.347Z,24.06
2023-05-15T02:27:22.410Z,24.05
2023-05-15T02:28:22.457Z,24.04
2023-05-15T02:29:22.511Z,24.04
2023-05-15T02:30:22.583Z,24.05
2023-05-15T02:31:24.358Z,24.05
2023-05-15T02:32:22.879Z,24.05
2023-05-15T02:33:22.745Z,24.04
2023-05-15T02:34:22.796Z,24.04
2023-05-15T02:35:22.957Z,24.04
2023-05-15T02:36:22.929Z,24.04
2023-05-15T02:37:22.967Z,24.04
2023-05-15T02:38:23.045Z,24.04
2023-05-15T02:39:23.098Z,24.04
2023-05-15T02:40:23.148Z,24.04
2023-05-15T02:41:23.225Z,24.04
2023-05-15T02:42:23.276Z,24.04
2023-05-15T02:43:23.328Z,24.04
2023-05-15T02:44:23.495Z,24.04
2023-05-15T02:45:23.569Z,24.04
2023-05-15T02:46:23.540Z,24.03
2023-05-15T02:47:23.615Z,24.04
2023-05-15T02:48:23.629Z,24.04
2023-05-15T02:49:23.682Z,24.03
2023-05-15T02:50:23.758Z,24.03
2023-05-15T02:51:23.814Z,24.04
2023-05-15T02:52:23.858Z,24.03
2023-05-15T02:53:23.934Z,24.03
2023-05-15T02:54:23.985Z,24.03
2023-05-15T02:55:24.236Z,24.03
2023-05-15T02:56:24.092Z,24.03
2023-05-15T02:57:24.165Z,24.03
2023-05-15T02:58:24.224Z,24.03
2023-05-15T02:59:24.262Z,24.02
2023-05-15T03:00:24.376Z,24.02
2023-05-15T03:01:24.507Z,24.03
2023-05-15T03:02:24.476Z,24.02
2023-05-15T03:03:24.482Z,24.02
2023-05-15T03:04:24.576Z,24.02
2023-05-15T03:05:24.798Z,24.02
2023-05-15T03:06:24.687Z,24.02
2023-05-15T03:07:24.717Z,24.02
2023-05-15T03:08:24.782Z,24.02
2023-05-15T03:09:24.853Z,24.02
2023-05-15T03:10:24.912Z,24.02
2023-05-15T03:11:24.978Z,24.02
2023-05-15T03:12:25.023Z,24.01
2023-05-15T03:13:25.085Z,24.01
2023-05-15T03:14:25.131Z,24.01
2023-05-15T03:15:25.420Z,24.01
2023-05-15T03:16:25.324Z,24.01
2023-05-15T03:17:25.317Z,24.01
2023-05-15T03:18:25.385Z,24.01
2023-05-15T03:19:25.425Z,24.00
2023-05-15T03:20:25.476Z,24.00
2023-05-15T03:21:25.541Z,24.01
2023-05-15T03:22:25.663Z,24.00
2023-05-15T03:23:25.658Z,24.00
2023-05-15T03:24:25.743Z,24.00
2023-05-15T03:25:26.002Z,24.01
2023-05-15T03:26:25.854Z,24.01
2023-05-15T03:27:25.920Z,24.00
2023-05-15T03:28:25.960Z,24.01
2023-05-15T03:29:26.034Z,24.01
2023-05-15T03:30:26.083Z,24.01
2023-05-15T03:31:26.163Z,23.99
2023-05-15T03:32:26.227Z,24.01
2023-05-15T03:33:26.257Z,23.99
2023-05-15T03:34:26.333Z,24.00
2023-05-15T03:35:26.608Z,24.00
2023-05-15T03:36:26.413Z,23.99
2023-05-15T03:37:26.488Z,24.00
2023-05-15T03:38:26.528Z,24.00
2023-05-15T03:39:26.589Z,24.00
2023-05-15T03:40:26.660Z,23.99
2023-05-15T03:41:26.725Z,23.99
2023-05-15T03:42:26.776Z,23.99
2023-05-15T03:43:26.902Z,23.99
2023-05-15T03:44:26.896Z,24.00
2023-05-15T03:45:27.344Z,23.99
2023-05-15T03:46:27.039Z,23.99
2023-05-15T03:47:27.098Z,24.00
2023-05-15T03:48:27.113Z,24.00
2023-05-15T03:49:27.169Z,23.99
2023-05-15T03:50:27.250Z,23.99
2023-05-15T03:51:27.308Z,23.99
2023-05-15T03:52:27.366Z,24.00
2023-05-15T03:53:27.433Z,23.99
2023-05-15T03:54:27.494Z,23.99
2023-05-15T03:55:27.658Z,23.98
2023-05-15T03:56:27.593Z,23.98
2023-05-15T03:57:27.657Z,23.98
2023-05-15T03:58:27.711Z,23.98
2023-05-15T03:59:27.778Z,23.99
2023-05-15T04:00:27.937Z,23.99
2023-05-15T04:01:27.905Z,23.98
2023-05-15T04:02:28.035Z,23.99
2023-05-15T04:03:28.102Z,23.98
2023-05-15T04:04:28.054Z,23.99
2023-05-15T04:05:28.385Z,23.98
2023-05-15T04:06:28.195Z,23.98
2023-05-15T04:07:28.242Z,23.98
2023-05-15T04:08:28.310Z,23.98
2023-05-15T04:09:28.365Z,23.98
2023-05-15T04:10:28.424Z,23.98
2023-05-15T04:11:28.502Z,23.98
2023-05-15T04:12:28.558Z,23.98
2023-05-15T04:13:28.605Z,23.98
2023-05-15T04:14:28.656Z,23.98
2023-05-15T04:15:28.857Z,23.97
2023-05-15T04:16:28.751Z,23.98
2023-05-15T04:17:28.835Z,23.98
2023-05-15T04:18:28.911Z,23.97
2023-05-15T04:19:28.940Z,23.98
2023-05-15T04:20:29.007Z,23.97
2023-05-15T04:21:29.034Z,23.98
2023-05-15T04:22:29.120Z,23.98
2023-05-15T04:23:29.169Z,23.97
2023-05-15T04:24:29.215Z,23.97
2023-05-15T04:25:29.294Z,23.99
2023-05-15T04:26:29.350Z,23.98
2023-05-15T04:27:29.396Z,23.98
2023-05-15T04:28:30.547Z,23.98
2023-05-15T04:29:29.559Z,23.98
2023-05-15T04:30:29.581Z,23.97
2023-05-15T04:31:29.677Z,23.98
2023-05-15T04:32:29.755Z,23.98
2023-05-15T04:33:29.751Z,23.97
2023-05-15T04:34:29.818Z,23.97
2023-05-15T04:35:29.857Z,23.98
2023-05-15T04:36:29.936Z,23.97
2023-05-15T04:37:29.985Z,23.97
2023-05-15T04:38:30.040Z,23.98
2023-05-15T04:39:30.106Z,23.97
2023-05-15T04:40:30.150Z,23.96
2023-05-15T04:41:30.203Z,23.97
2023-05-15T04:42:30.265Z,23.97
2023-05-15T04:43:30.341Z,23.97
2023-05-15T04:44:30.386Z,23.97
2023-05-15T04:45:30.459Z,23.97
2023-05-15T04:46:30.619Z,23.98
2023-05-15T04:47:30.565Z,23.98
2023-05-15T04:48:30.621Z,23.97
2023-05-15T04:49:30.675Z,23.97
2023-05-15T04:50:30.733Z,23.97
2023-05-15T04:51:30.774Z,23.98
2023-05-15T04:52:30.839Z,23.98
2023-05-15T04:53:30.913Z,23.97
2023-05-15T04:54:30.950Z,23.98
2023-05-15T04:55:31.733Z,23.97
2023-05-15T04:56:31.071Z,23.97
2023-05-15T04:57:31.133Z,23.98
2023-05-15T04:58:31.196Z,23.97
2023-05-15T04:59:31.244Z,23.97
2023-05-15T05:00:31.294Z,23.97
2023-05-15T05:01:31.383Z,23.97
2023-05-15T05:02:31.445Z,23.97
2023-05-15T05:03:31.490Z,23.97
2023-05-15T05:04:31.520Z,23.96
2023-05-15T05:05:31.580Z,23.97
2023-05-15T05:06:31.661Z,23.97
2023-05-15T05:07:31.709Z,23.97
2023-05-15T05:08:31.782Z,23.97
2023-05-15T05:09:31.844Z,23.97
2023-05-15T05:10:31.872Z,23.98
2023-05-15T05:11:31.927Z,23.97
2023-05-15T05:12:31.995Z,23.97
2023-05-15T05:13:32.060Z,23.97
2023-05-15T05:14:32.092Z,23.98
2023-05-15T05:15:32.172Z,23.97
2023-05-15T05:16:32.299Z,23.97
2023-05-15T05:17:32.271Z,23.97
2023-05-15T05:18:32.336Z,23.97
2023-05-15T05:19:32.382Z,23.97
2023-05-15T05:20:32.448Z,23.97
2023-05-15T05:21:32.529Z,23.98
2023-05-15T05:22:32.582Z,23.98
2023-05-15T05:23:32.639Z,23.97
2023-05-15T05:24:32.738Z,23.99
2023-05-15T05:25:32.760Z,24.00
2023-05-15T05:26:32.850Z,24.01
2023-05-15T05:27:32.852Z,24.01
2023-05-15T05:28:32.933Z,23.99
2023-05-15T05:29:32.977Z,23.94
2023-05-15T05:30:33.029Z,23.90
2023-05-15T05:31:33.323Z,23.90
2023-05-15T05:32:33.159Z,23.92
2023-05-15T05:33:33.186Z,23.92
2023-05-15T05:34:33.248Z,23.94
2023-05-15T05:35:33.308Z,23.95
2023-05-15T05:36:33.379Z,23.97
2023-05-15T05:37:33.440Z,24.00
2023-05-15T05:38:33.499Z,24.02
2023-05-15T05:39:33.542Z,24.05
2023-05-15T05:40:33.574Z,24.04
2023-05-15T05:41:33.652Z,24.06
2023-05-15T05:42:33.704Z,24.08
2023-05-15T05:43:33.751Z,24.08
2023-05-15T05:44:33.796Z,24.10
2023-05-15T05:45:33.868Z,24.11
2023-05-15T05:46:33.928Z,24.13
2023-05-15T05:47:34.011Z,24.16
2023-05-15T05:48:34.007Z,24.18
2023-05-15T05:49:34.034Z,24.21
2023-05-15T05:50:34.054Z,24.23
2023-05-15T05:51:34.072Z,24.25
2023-05-15T05:52:34.273Z,24.27
2023-05-15T05:53:34.118Z,24.28
2023-05-15T05:54:34.151Z,24.31
2023-05-15T05:55:34.189Z,24.33
2023-05-15T05:56:34.224Z,24.35
2023-05-15T05:57:34.248Z,24.36
2023-05-15T05:58:34.240Z,24.38
2023-05-15T05:59:34.259Z,24.39
2023-05-15T06:00:34.267Z,24.41
2023-05-15T06:01:34.280Z,24.42
2023-05-15T06:02:34.869Z,24.44
2023-05-15T06:03:34.348Z,24.45
2023-05-15T06:04:34.454Z,24.47
2023-05-15T06:05:34.307Z,24.49
2023-05-15T06:06:34.303Z,24.50
2023-05-15T06:07:34.312Z,24.52
2023-05-15T06:08:34.354Z,24.55
2023-05-15T06:09:34.319Z,24.58
2023-05-15T06:10:34.345Z,24.59
2023-05-15T06:11:34.335Z,24.60
2023-05-15T06:12:34.738Z,24.61
2023-05-15T06:13:34.323Z,24.63
2023-05-15T06:14:34.319Z,24.63
2023-05-15T06:15:34.353Z,24.65
2023-05-15T06:16:34.354Z,24.66
2023-05-15T06:17:34.762Z,24.66
2023-05-15T06:18:34.383Z,24.66
2023-05-15T06:19:34.300Z,24.67
2023-05-15T06:20:34.309Z,24.68
2023-05-15T06:21:34.317Z,24.69
2023-05-15T06:22:34.314Z,24.69
2023-05-15T06:23:34.318Z,24.69
2023-05-15T06:24:34.329Z,24.70
2023-05-15T06:25:34.311Z,24.69
2023-05-15T06:26:34.340Z,24.70
2023-05-15T06:27:34.346Z,24.71
2023-05-15T06:28:34.547Z,24.72
2023-05-15T06:29:34.376Z,24.72
2023-05-15T06:30:34.414Z,24.73
2023-05-15T06:31:34.390Z,24.73
2023-05-15T06:32:34.726Z,24.74
2023-05-15T06:33:34.406Z,24.73
2023-05-15T06:34:34.380Z,24.71
2023-05-15T06:35:34.391Z,24.67
2023-05-15T06:36:34.376Z,24.68
2023-05-15T06:37:34.752Z,24.68
2023-05-15T06:38:34.412Z,24.68
2023-05-15T06:39:34.399Z,24.63
2023-05-15T06:40:34.401Z,24.61
2023-05-15T06:41:34.425Z,24.61
2023-05-15T06:42:34.770Z,24.62
2023-05-15T06:43:35.847Z,24.63
2023-05-15T06:44:34.471Z,24.64
2023-05-15T06:45:34.454Z,24.62
2023-05-15T06:46:34.489Z,24.54
2023-05-15T06:47:34.510Z,24.55
2023-05-15T06:48:34.469Z,24.54
2023-05-15T06:49:34.473Z,24.56
2023-05-15T06:50:34.489Z,24.58
2023-05-15T06:51:34.482Z,24.61
2023-05-15T06:52:34.491Z,24.63
2023-05-15T06:53:34.499Z,24.65
2023-05-15T06:54:34.487Z,24.67
2023-05-15T06:55:34.505Z,24.69
2023-05-15T06:56:34.509Z,24.70
2023-05-15T06:57:34.497Z,24.70
2023-05-15T06:58:34.516Z,24.71
2023-05-15T06:59:34.519Z,24.71
2023-05-15T07:00:34.502Z,24.71
2023-05-15T07:01:34.545Z,24.71
2023-05-15T07:02:34.530Z,24.72
2023-05-15T07:03:34.515Z,24.71
2023-05-15T07:04:34.557Z,24.72
2023-05-15T07:05:34.513Z,24.67
2023-05-15T07:06:34.517Z,24.63
2023-05-15T07:07:34.821Z,24.61
2023-05-15T07:08:34.590Z,24.59
2023-05-15T07:09:34.619Z,24.55
2023-05-15T07:10:34.608Z,24.50
2023-05-15T07:11:34.637Z,24.50
2023-05-15T07:12:34.787Z,24.50
2023-05-15T07:13:34.690Z,24.50
2023-05-15T07:14:34.699Z,24.51
2023-05-15T07:15:34.738Z,24.49
2023-05-15T07:16:34.825Z,24.50
2023-05-15T07:17:34.846Z,24.50
2023-05-15T07:18:34.890Z,24.44
2023-05-15T07:19:34.907Z,24.39
2023-05-15T07:20:35.279Z,24.33
2023-05-15T07:21:34.892Z,24.28
2023-05-15T07:22:41.568Z,24.21
2023-05-15T07:23:35.921Z,24.16
2023-05-15T07:24:34.919Z,24.08
2023-05-15T07:25:34.893Z,24.02
2023-05-15T07:26:43.533Z,24.05
2023-05-15T07:27:36.284Z,24.08
2023-05-15T07:28:34.912Z,24.11
2023-05-15T07:29:34.889Z,24.10
2023-05-15T07:30:34.865Z,24.07
2023-05-15T07:31:34.946Z,24.08
2023-05-15T07:32:34.998Z,24.08
2023-05-15T07:33:34.843Z,24.10
2023-05-15T07:34:34.847Z,24.15
2023-05-15T07:35:34.828Z,24.20
2023-05-15T07:36:34.853Z,24.27
2023-05-15T07:37:35.284Z,24.34
2023-05-15T07:38:34.847Z,24.39
2023-05-15T07:39:34.877Z,24.40
2023-05-15T07:40:34.881Z,24.42
2023-05-15T07:41:34.896Z,24.46
2023-05-15T07:42:34.919Z,24.50
2023-05-15T07:43:34.887Z,24.57
2023-05-15T07:44:34.888Z,24.66
2023-05-15T07:45:34.987Z,24.72
2023-05-15T07:46:35.124Z,24.79
2023-05-15T07:47:35.056Z,24.85
2023-05-15T07:48:35.093Z,24.90
2023-05-15T07:49:35.151Z,24.92
2023-05-15T07:50:35.236Z,24.93
2023-05-15T07:51:35.282Z,24.96
2023-05-15T07:52:35.776Z,24.98
2023-05-15T07:53:35.381Z,25.02
2023-05-15T07:54:35.443Z,25.04
2023-05-15T07:55:35.484Z,25.07
2023-05-15T07:56:35.514Z,25.09
2023-05-15T07:57:35.575Z,25.09
2023-05-15T07:58:35.611Z,25.09
2023-05-15T07:59:35.724Z,25.10
2023-05-15T08:00:35.708Z,25.09
2023-05-15T08:01:35.771Z,25.10
2023-05-15T08:02:35.869Z,25.12
2023-05-15T08:03:35.956Z,25.13
2023-05-15T08:04:36.086Z,25.15
2023-05-15T08:05:35.930Z,25.17
2023-05-15T08:06:35.975Z,25.19
2023-05-15T08:07:36.021Z,25.20
2023-05-15T08:08:36.097Z,25.23
2023-05-15T08:09:36.092Z,25.26
2023-05-15T08:10:36.134Z,25.28
2023-05-15T08:11:36.179Z,25.28
2023-05-15T08:12:36.222Z,25.28
2023-05-15T08:13:36.246Z,25.28
2023-05-15T08:14:36.373Z,25.28
2023-05-15T08:15:36.345Z,25.28
2023-05-15T08:16:36.361Z,25.27
2023-05-15T08:17:36.391Z,25.27
2023-05-15T08:18:36.432Z,25.24
2023-05-15T08:19:36.456Z,25.19
2023-05-15T08:20:36.499Z,25.16
2023-05-15T08:21:36.533Z,25.13
2023-05-15T08:22:36.598Z,25.15
2023-05-15T08:23:36.632Z,25.13
2023-05-15T08:24:36.675Z,25.15
2023-05-15T08:25:36.720Z,25.15
2023-05-15T08:26:36.764Z,25.18
2023-05-15T08:27:37.296Z,25.22
2023-05-15T08:28:36.831Z,25.22
2023-05-15T08:29:39.337Z,25.21
2023-05-15T08:30:36.873Z,25.20
2023-05-15T08:31:36.890Z,25.23
2023-05-15T08:32:36.910Z,25.23
2023-05-15T08:33:36.846Z,25.23
2023-05-15T08:34:36.842Z,25.24
2023-05-15T08:35:36.842Z,25.28
2023-05-15T08:36:37.813Z,25.30
2023-05-15T08:37:37.310Z,25.29
2023-05-15T08:38:36.820Z,25.27
2023-05-15T08:39:36.791Z,25.31
2023-05-15T08:40:39.655Z,25.29
2023-05-15T08:42:36.768Z,25.26
2023-05-15T08:43:36.764Z,25.31
2023-05-15T08:44:36.771Z,25.37
2023-05-15T08:45:36.769Z,25.41
2023-05-15T08:46:36.760Z,25.46
2023-05-15T08:47:36.789Z,25.51
2023-05-15T08:48:36.853Z,25.55
2023-05-15T08:49:36.730Z,25.60
2023-05-15T08:50:36.721Z,25.65
2023-05-15T08:51:36.704Z,25.70
2023-05-15T08:52:36.837Z,25.72
2023-05-15T08:53:36.709Z,25.70
2023-05-15T08:54:36.684Z,25.67
2023-05-15T08:55:36.696Z,25.64
2023-05-15T08:56:36.682Z,25.61
2023-05-15T08:57:36.676Z,25.61
2023-05-15T08:58:36.665Z,25.63
2023-05-15T08:59:36.662Z,25.65
2023-05-15T09:00:36.637Z,25.64
2023-05-15T09:01:36.652Z,25.59
2023-05-15T09:02:36.669Z,25.57
2023-05-15T09:03:36.734Z,25.58
2023-05-15T09:04:36.609Z,25.57
2023-05-15T09:05:38.192Z,25.58
2023-05-15T09:06:36.594Z,25.59
2023-05-15T09:07:36.590Z,25.59
2023-05-15T09:08:36.590Z,25.60
2023-05-15T09:09:36.571Z,25.57
2023-05-15T09:10:36.591Z,25.61
2023-05-15T09:11:36.563Z,25.61
2023-05-15T09:12:36.547Z,25.62
2023-05-15T09:13:36.576Z,25.64
2023-05-15T09:14:36.533Z,25.67
2023-05-15T09:15:36.544Z,25.69
2023-05-15T09:16:36.554Z,25.69
2023-05-15T09:17:36.570Z,25.68
2023-05-15T09:18:36.526Z,25.69
2023-05-15T09:19:36.508Z,25.69
2023-05-15T09:20:36.494Z,25.71
2023-05-15T09:21:36.492Z,25.72
2023-05-15T09:22:36.832Z,25.74
2023-05-15T09:23:36.466Z,25.71
2023-05-15T09:24:36.466Z,25.72
2023-05-15T09:25:36.483Z,25.72
2023-05-15T09:26:36.462Z,25.70
2023-05-15T09:27:36.436Z,25.74
2023-05-15T09:28:36.454Z,25.78
2023-05-15T09:29:36.438Z,25.79
2023-05-15T09:30:36.439Z,25.77
2023-05-15T09:31:36.458Z,25.76
2023-05-15T09:32:36.481Z,25.78
2023-05-15T09:33:36.427Z,25.78
2023-05-15T09:34:36.389Z,25.79
2023-05-15T09:35:36.426Z,25.80
2023-05-15T09:36:36.383Z,25.82
2023-05-15T09:37:36.374Z,25.82
2023-05-15T09:38:36.386Z,25.84
2023-05-15T09:39:36.372Z,25.85
2023-05-15T09:40:36.405Z,25.86
2023-05-15T09:41:36.383Z,25.86
2023-05-15T09:42:36.354Z,25.88
2023-05-15T09:43:36.349Z,25.89
2023-05-15T09:44:36.337Z,25.90
2023-05-15T09:45:36.321Z,25.91
2023-05-15T09:46:36.416Z,25.93
2023-05-15T09:47:36.511Z,25.94
2023-05-15T09:48:36.447Z,25.96
2023-05-15T09:49:36.290Z,25.98
2023-05-15T09:50:36.281Z,25.99
2023-05-15T09:51:36.266Z,25.98
2023-05-15T09:52:36.264Z,25.94
2023-05-15T09:53:36.273Z,25.91
2023-05-15T09:54:36.254Z,25.88
2023-05-15T09:55:36.295Z,25.84
2023-05-15T09:56:36.236Z,25.80
2023-05-15T09:57:36.225Z,25.77
2023-05-15T09:58:36.219Z,25.74
2023-05-15T09:59:36.210Z,25.74
2023-05-15T10:00:36.210Z,25.71
2023-05-15T10:01:37.237Z,25.69
2023-05-15T10:02:36.233Z,25.69
2023-05-15T10:03:36.344Z,25.66
2023-05-15T10:04:36.191Z,25.61
2023-05-15T10:06:37.171Z,25.22
2023-05-15T10:07:36.159Z,25.15
2023-05-15T10:08:36.350Z,25.11
2023-05-15T10:09:36.143Z,25.10
2023-05-15T10:10:36.148Z,25.06
2023-05-15T10:11:36.123Z,25.06
2023-05-15T10:12:36.112Z,25.08
2023-05-15T10:13:36.113Z,25.10
2023-05-15T10:14:36.099Z,25.12
2023-05-15T10:15:36.093Z,25.15
2023-05-15T10:16:36.211Z,25.18
2023-05-15T10:17:36.121Z,25.21
2023-05-15T10:18:36.388Z,25.24
2023-05-15T10:19:41.561Z,25.26
2023-05-15T10:20:37.146Z,25.29
2023-05-15T10:21:36.131Z,25.30
2023-05-15T10:22:36.142Z,25.29
2023-05-15T10:23:36.351Z,25.30
2023-05-15T10:24:36.099Z,25.18
2023-05-15T10:25:36.128Z,25.14
2023-05-15T10:26:36.095Z,25.11
2023-05-15T10:27:36.092Z,25.12
2023-05-15T10:28:36.342Z,25.12
2023-05-15T10:29:36.126Z,25.11
2023-05-15T10:30:36.189Z,25.09
2023-05-15T10:31:36.341Z,25.08
2023-05-15T10:32:36.319Z,25.08
2023-05-15T10:33:36.325Z,25.09
2023-05-15T10:34:36.391Z,25.10
2023-05-15T10:35:36.530Z,25.13
2023-05-15T10:36:36.490Z,25.18
2023-05-15T10:37:36.528Z,25.21
2023-05-15T10:38:36.580Z,25.25
2023-05-15T10:39:36.577Z,25.29
2023-05-15T10:40:36.623Z,25.32
2023-05-15T10:41:36.624Z,25.36
2023-05-15T10:42:36.656Z,25.38
2023-05-15T10:43:36.700Z,25.41
2023-05-15T10:44:36.715Z,25.42
2023-05-15T10:45:36.716Z,25.45
2023-05-15T10:46:36.791Z,25.48
2023-05-15T10:47:36.796Z,25.51
2023-05-15T10:48:36.790Z,25.52
2023-05-15T10:49:36.806Z,25.54
2023-05-15T10:50:36.823Z,25.55
2023-05-15T10:51:36.857Z,25.57
2023-05-15T10:52:36.868Z,25.59
2023-05-15T10:53:36.880Z,25.60
2023-05-15T10:54:36.921Z,25.60
2023-05-15T10:55:36.950Z,25.62
2023-05-15T10:56:36.989Z,25.63
2023-05-15T10:57:36.981Z,25.63
2023-05-15T10:58:36.999Z,25.64
2023-05-15T10:59:37.033Z,25.65
2023-05-15T11:00:37.020Z,25.67
2023-05-15T11:01:37.234Z,25.67
2023-05-15T11:02:37.101Z,25.68
2023-05-15T11:03:48.121Z,25.69
2023-05-15T11:04:38.118Z,25.70
2023-05-15T11:05:37.071Z,25.70
2023-05-15T11:06:37.067Z,25.71
2023-05-15T11:07:37.087Z,25.72
2023-05-15T11:08:37.058Z,25.73
2023-05-15T11:09:37.088Z,25.74
2023-05-15T11:10:37.057Z,25.75
2023-05-15T11:11:37.048Z,25.76
2023-05-15T11:12:37.021Z,25.76
2023-05-15T11:13:37.355Z,25.75
2023-05-15T11:14:37.040Z,25.75
2023-05-15T11:15:37.015Z,25.71
2023-05-15T11:16:37.114Z,25.71
2023-05-15T11:17:37.023Z,25.73
2023-05-15T11:18:37.401Z,25.74
2023-05-15T11:19:36.982Z,25.74
2023-05-15T11:20:37.299Z,25.72
2023-05-15T11:21:36.961Z,25.71
2023-05-15T11:22:36.958Z,25.70
2023-05-15T11:23:37.379Z,25.68
2023-05-15T11:24:36.956Z,25.66
2023-05-15T11:25:36.924Z,25.64
2023-05-15T11:26:36.939Z,25.61
2023-05-15T11:27:36.967Z,25.59
2023-05-15T11:28:36.976Z,25.58
2023-05-15T11:29:36.979Z,25.57
2023-05-15T11:30:37.028Z,25.56
2023-05-15T11:31:37.066Z,25.56
2023-05-15T11:32:37.097Z,25.55
2023-05-15T11:33:37.102Z,25.53
2023-05-15T11:34:37.128Z,25.53
2023-05-15T11:35:37.123Z,25.52
2023-05-15T11:36:37.783Z,25.51
2023-05-15T11:37:37.179Z,25.50
2023-05-15T11:38:37.206Z,25.50
2023-05-15T11:39:37.229Z,25.49
2023-05-15T11:40:37.269Z,25.48
2023-05-15T11:41:37.306Z,25.49
2023-05-15T11:42:37.316Z,25.48
2023-05-15T11:43:37.375Z,25.49
2023-05-15T11:44:37.362Z,25.49
2023-05-15T11:45:37.392Z,25.49
2023-05-15T11:46:37.470Z,25.49
2023-05-15T11:47:37.436Z,25.50
2023-05-15T11:48:37.489Z,25.50
2023-05-15T11:49:37.483Z,25.50
2023-05-15T11:50:37.538Z,25.51
2023-05-15T11:51:37.542Z,25.49
2023-05-15T11:52:37.571Z,25.48
2023-05-15T11:53:37.584Z,25.48
2023-05-15T11:54:37.610Z,25.47
2023-05-15T11:55:37.625Z,25.46
2023-05-15T11:56:37.654Z,25.46
2023-05-15T11:57:37.664Z,25.45
2023-05-15T11:58:37.691Z,25.45
2023-05-15T11:59:37.722Z,25.45
2023-05-15T12:00:37.753Z,25.44
2023-05-15T12:01:37.758Z,25.43
2023-05-15T12:02:37.830Z,25.43
2023-05-15T12:03:38.218Z,25.44
2023-05-15T12:04:37.898Z,25.42
2023-05-15T12:05:42.257Z,25.42
2023-05-15T12:06:38.884Z,25.42
2023-05-15T12:07:37.881Z,25.41
2023-05-15T12:08:37.878Z,25.40
2023-05-15T12:09:37.842Z,25.40
2023-05-15T12:10:37.835Z,25.39
2023-05-15T12:11:37.851Z,25.39
2023-05-15T12:12:37.820Z,25.39
2023-05-15T12:13:37.884Z,25.39
2023-05-15T12:14:37.806Z,25.39
2023-05-15T12:15:37.807Z,25.38
2023-05-15T12:16:37.836Z,25.38
2023-05-15T12:17:37.809Z,25.38
2023-05-15T12:18:37.838Z,25.37
2023-05-15T12:19:37.791Z,25.38
2023-05-15T12:20:37.807Z,25.37
2023-05-15T12:21:37.938Z,25.37
2023-05-15T12:22:37.845Z,25.37
2023-05-15T12:23:37.905Z,25.36
2023-05-15T12:24:37.926Z,25.36
2023-05-15T12:25:37.963Z,25.36
2023-05-15T12:26:37.975Z,25.35
2023-05-15T12:27:38.025Z,25.36
2023-05-15T12:28:38.051Z,25.36
2023-05-15T12:29:38.093Z,25.36
2023-05-15T12:30:38.132Z,25.37
2023-05-15T12:31:38.199Z,25.37
2023-05-15T12:32:38.221Z,25.37
2023-05-15T12:33:38.330Z,25.37
2023-05-15T12:34:38.267Z,25.37
2023-05-15T12:35:38.276Z,25.36
2023-05-15T12:36:38.320Z,25.35
2023-05-15T12:37:38.340Z,25.34
2023-05-15T12:38:38.398Z,25.34
2023-05-15T12:39:38.429Z,25.34
2023-05-15T12:40:38.441Z,25.33
2023-05-15T12:41:38.477Z,25.33
2023-05-15T12:42:38.525Z,25.32
2023-05-15T12:43:38.570Z,25.32
2023-05-15T12:44:38.611Z,25.31
2023-05-15T12:45:38.641Z,25.31
2023-05-15T12:46:38.741Z,25.31
2023-05-15T12:47:38.790Z,25.31
2023-05-15T12:48:38.744Z,25.29
2023-05-15T12:49:38.779Z,25.29
2023-05-15T12:50:38.821Z,25.29
2023-05-15T12:51:38.858Z,25.28
2023-05-15T12:52:38.897Z,25.27
2023-05-15T12:53:39.010Z,25.28
2023-05-15T12:54:38.967Z,25.28
2023-05-15T12:55:39.000Z,25.26